< < Back
Terminal Aerodrome Forecast


Current Version              Previous Versions:   1  2  3  4  5  6  7  8  9  

Terminal Aerodrome Forecast

441
FTUS44 KBMX 282324
TAFANB
TAF
KANB 282324Z 2900/2924 02005KT P6SM BKN250
     FM290600 00000KT P6SM SCT250
      TEMPO 2909/2912 4SM BR
     FM291800 35006KT P6SM SCT250=

Latest METAR

650
SAUS70 KWBC 300100 RRH
MTRANB
METAR KANB 300053Z AUTO 34005KT 10SM FEW120 31/16 A2994 RMK AO2 LTG DSNT
E-SW SLP127 T03110161


USA.gov is the U.S. government's official web portal to all federal, state and local government web resources and services.